createdAt,value
2023-03-22T00:03:20.219Z,30.28
2023-03-22T00:07:20.096Z,31.13
2023-03-22T00:11:20.012Z,35.16
2023-03-22T00:15:19.915Z,26.83
2023-03-22T00:19:19.828Z,26.31
2023-03-22T00:23:19.751Z,33.48
2023-03-22T00:27:19.662Z,35.57
2023-03-22T00:31:19.632Z,30.74
2023-03-22T00:35:19.535Z,36.93
2023-03-22T00:39:19.421Z,32.79
2023-03-22T00:43:19.339Z,29.94
2023-03-22T00:47:19.350Z,35.58
2023-03-22T00:51:19.164Z,32.97
2023-03-22T00:55:19.079Z,35.25
2023-03-22T00:59:19.377Z,28.97
2023-03-22T01:03:18.960Z,28.90
2023-03-22T01:07:18.841Z,31.14
2023-03-22T01:11:18.778Z,40.29
2023-03-22T01:15:18.689Z,32.54
2023-03-22T01:19:18.606Z,34.56
2023-03-22T01:23:18.537Z,29.17
2023-03-22T01:27:18.858Z,39.07
2023-03-22T01:31:18.534Z,38.35
2023-03-22T01:35:18.350Z,33.33
2023-03-22T01:39:18.276Z,36.82
2023-03-22T01:43:18.270Z,30.27
2023-03-22T01:47:18.138Z,35.80
2023-03-22T01:51:18.070Z,36.62
2023-03-22T01:55:18.012Z,35.40
2023-03-22T01:59:17.941Z,33.12
2023-03-22T02:03:17.866Z,34.09
2023-03-22T02:07:17.802Z,29.79
2023-03-22T02:11:17.751Z,33.65
2023-03-22T02:15:17.670Z,27.32
2023-03-22T02:19:17.623Z,35.20
2023-03-22T02:23:17.560Z,30.71
2023-03-22T02:27:17.535Z,36.19
2023-03-22T02:31:17.427Z,33.52
2023-03-22T02:35:17.358Z,33.91
2023-03-22T02:39:17.254Z,34.86
2023-03-22T02:43:17.175Z,32.54
2023-03-22T02:47:17.145Z,36.53
2023-03-22T02:51:16.984Z,36.96
2023-03-22T02:55:16.883Z,28.93
2023-03-22T02:59:16.782Z,31.59
2023-03-22T03:03:16.677Z,33.83
2023-03-22T03:07:16.596Z,30.22
2023-03-22T03:11:16.504Z,30.38
2023-03-22T03:15:16.903Z,33.51
2023-03-22T03:19:16.280Z,33.76
2023-03-22T03:23:16.194Z,34.02
2023-03-22T03:27:16.157Z,34.74
2023-03-22T03:31:16.046Z,39.29
2023-03-22T03:35:15.907Z,38.29
2023-03-22T03:39:15.799Z,33.89
2023-03-22T03:43:15.757Z,41.17
2023-03-22T03:47:15.568Z,31.99
2023-03-22T03:51:15.462Z,39.26
2023-03-22T03:55:15.355Z,35.42
2023-03-22T03:59:15.258Z,36.04
2023-03-22T04:03:15.170Z,43.70
2023-03-22T04:07:15.183Z,34.76
2023-03-22T04:11:14.981Z,44.31
2023-03-22T04:15:14.900Z,40.07
2023-03-22T04:19:14.817Z,43.11
2023-03-22T04:23:14.724Z,38.61
2023-03-22T04:27:14.918Z,32.52
2023-03-22T04:31:14.561Z,33.82
2023-03-22T04:35:15.419Z,42.50
2023-03-22T04:39:14.382Z,40.65
2023-03-22T04:43:14.289Z,34.59
2023-03-22T04:47:14.221Z,41.45
2023-03-22T04:51:14.130Z,35.68
2023-03-22T04:55:14.052Z,46.51
2023-03-22T04:59:13.972Z,38.36
2023-03-22T05:03:13.912Z,40.82
2023-03-22T05:07:13.808Z,42.81
2023-03-22T05:11:13.720Z,43.12
2023-03-22T05:15:13.652Z,40.84
2023-03-22T05:19:13.989Z,44.00
2023-03-22T05:23:13.533Z,37.43
2023-03-22T05:27:13.435Z,41.19
2023-03-22T05:31:13.417Z,43.82
2023-03-22T05:35:13.329Z,37.69
2023-03-22T05:39:13.246Z,41.91
2023-03-22T05:43:13.194Z,47.17
2023-03-22T05:47:13.120Z,43.79
2023-03-22T05:51:13.050Z,38.32
2023-03-22T05:55:13.007Z,39.99
2023-03-22T05:59:12.940Z,35.21
2023-03-22T06:03:14.647Z,37.76
2023-03-22T06:07:12.953Z,41.80
2023-03-22T06:11:12.368Z,39.01
2023-03-22T06:15:12.126Z,43.04
2023-03-22T06:19:11.868Z,41.34
2023-03-22T06:23:11.711Z,42.19
2023-03-22T06:27:11.335Z,40.27
2023-03-22T06:31:11.166Z,44.30
2023-03-22T06:35:10.840Z,42.50
2023-03-22T06:39:11.400Z,38.43
2023-03-22T06:43:10.361Z,44.14
2023-03-22T06:47:10.202Z,39.97
2023-03-22T06:51:10.475Z,45.39
2023-03-22T06:55:10.035Z,45.81
2023-03-22T06:59:09.980Z,44.03
2023-03-22T07:03:09.928Z,42.56
2023-03-22T07:07:09.854Z,47.69
2023-03-22T07:11:09.789Z,45.77
2023-03-22T07:15:09.800Z,39.13
2023-03-22T07:19:09.970Z,39.03
2023-03-22T07:23:09.623Z,44.46
2023-03-22T07:27:09.590Z,39.66
2023-03-22T07:31:09.548Z,38.34
2023-03-22T07:35:09.496Z,41.84
2023-03-22T07:39:09.450Z,38.49
2023-03-22T07:43:09.376Z,35.01
2023-03-22T07:47:09.340Z,33.41
2023-03-22T07:51:09.397Z,38.31
2023-03-22T07:55:09.234Z,41.63
2023-03-22T07:59:09.946Z,41.77
2023-03-22T08:03:09.155Z,40.28
2023-03-22T08:07:09.089Z,38.14
2023-03-22T08:11:08.990Z,39.47
2023-03-22T08:15:08.945Z,37.97
2023-03-22T08:19:08.850Z,40.38
2023-03-22T08:23:08.769Z,36.08
2023-03-22T08:27:08.710Z,39.30
2023-03-22T08:31:08.657Z,42.20
2023-03-22T08:35:08.596Z,40.75
2023-03-22T08:39:08.534Z,35.96
2023-03-22T08:43:08.494Z,40.42
2023-03-22T08:47:08.435Z,39.95
2023-03-22T08:51:08.376Z,46.36
2023-03-22T08:55:08.310Z,38.29
2023-03-22T08:59:08.224Z,34.76
2023-03-22T09:03:08.149Z,39.36
2023-03-22T09:07:08.075Z,46.44
2023-03-22T09:11:08.019Z,42.14
2023-03-22T09:15:07.947Z,42.38
2023-03-22T09:19:07.863Z,41.48
2023-03-22T09:23:07.778Z,42.04
2023-03-22T09:27:07.713Z,41.80
2023-03-22T09:31:07.711Z,46.33
2023-03-22T09:35:07.649Z,33.84
2023-03-22T09:39:07.580Z,40.84
2023-03-22T09:43:07.543Z,36.42
2023-03-22T09:47:07.530Z,46.45
2023-03-22T09:51:08.016Z,40.93
2023-03-22T09:55:07.457Z,43.25
2023-03-22T09:59:07.433Z,41.03
2023-03-22T10:03:07.407Z,41.67
2023-03-22T10:07:07.357Z,43.27
2023-03-22T10:11:07.332Z,42.14
2023-03-22T10:15:07.279Z,46.22
2023-03-22T10:19:07.268Z,46.58
2023-03-22T10:23:07.255Z,44.97
2023-03-22T10:27:07.225Z,37.13
2023-03-22T10:31:07.267Z,41.14
2023-03-22T10:35:07.205Z,44.06
2023-03-22T10:39:07.180Z,41.85
2023-03-22T10:43:07.123Z,42.49
2023-03-22T10:47:07.207Z,45.05
2023-03-22T10:51:07.053Z,48.61
2023-03-22T10:55:07.015Z,47.02
2023-03-22T10:59:06.974Z,41.61
2023-03-22T11:03:07.016Z,42.86
2023-03-22T11:07:06.900Z,45.72
2023-03-22T11:11:06.887Z,45.19
2023-03-22T11:15:06.851Z,39.27
2023-03-22T11:19:06.835Z,44.92
2023-03-22T11:23:06.804Z,45.44
2023-03-22T11:27:06.815Z,46.25
2023-03-22T11:31:06.779Z,46.01
2023-03-22T11:35:06.694Z,45.45
2023-03-22T11:39:06.643Z,42.50
2023-03-22T11:43:06.614Z,40.94
2023-03-22T11:47:06.587Z,37.40
2023-03-22T11:51:06.521Z,42.31
2023-03-22T11:55:06.489Z,39.02
2023-03-22T11:59:06.555Z,42.57
2023-03-22T12:03:06.473Z,48.42
2023-03-22T12:07:06.310Z,38.26
2023-03-22T12:11:06.309Z,41.80
2023-03-22T12:15:06.291Z,42.02
2023-03-22T12:19:06.150Z,46.36
2023-03-22T12:23:06.091Z,35.65
2023-03-22T12:27:06.004Z,46.05
2023-03-22T12:31:05.956Z,44.17
2023-03-22T12:35:16.702Z,38.15
2023-03-22T12:39:07.064Z,42.01
2023-03-22T12:43:05.313Z,42.80
2023-03-22T12:47:05.165Z,37.77
2023-03-22T12:51:05.009Z,49.33
2023-03-22T12:55:07.567Z,44.48
2023-03-22T12:59:04.645Z,40.00
2023-03-22T13:03:04.550Z,39.73
2023-03-22T13:07:04.099Z,39.61
2023-03-22T13:11:03.886Z,38.56
2023-03-22T13:15:03.692Z,42.76
2023-03-22T13:19:03.328Z,32.63
2023-03-22T13:23:03.055Z,41.40
2023-03-22T13:27:02.820Z,38.64
2023-03-22T13:31:02.488Z,40.43
2023-03-22T13:35:02.227Z,34.47
2023-03-22T13:39:01.949Z,35.16
2023-03-22T13:43:01.694Z,36.55
2023-03-22T13:47:01.452Z,40.85
2023-03-22T13:51:01.198Z,34.19
2023-03-22T13:55:01.012Z,35.30
2023-03-22T13:59:00.917Z,38.32
2023-03-22T14:03:01.044Z,34.67
2023-03-22T14:07:00.686Z,35.12
2023-03-22T14:11:00.529Z,32.46
2023-03-22T14:15:00.399Z,35.46
2023-03-22T14:19:07.347Z,34.41
2023-03-22T14:48:07.302Z,25.00
2023-03-22T14:52:07.297Z,26.34
2023-03-22T14:56:07.252Z,27.01
2023-03-22T15:00:07.231Z,28.70
2023-03-22T15:04:07.226Z,28.17
2023-03-22T15:08:07.216Z,30.36
2023-03-22T15:12:07.198Z,28.56
2023-03-22T15:16:07.223Z,28.09
2023-03-22T15:20:07.196Z,29.31
2023-03-22T15:24:07.186Z,28.44
2023-03-22T15:28:07.179Z,30.49
2023-03-22T15:32:07.165Z,29.41
2023-03-22T15:36:07.176Z,29.69
2023-03-22T15:40:07.215Z,28.74
2023-03-22T15:44:07.150Z,27.79
2023-03-22T15:48:07.271Z,27.40
2023-03-22T15:52:07.412Z,28.60
2023-03-22T15:56:07.525Z,29.16
2023-03-22T16:00:07.646Z,27.35
2023-03-22T16:04:07.755Z,28.45
2023-03-22T16:08:07.879Z,28.77
2023-03-22T16:12:07.962Z,29.08
2023-03-22T16:16:08.030Z,25.69
2023-03-22T16:20:08.146Z,29.59
2023-03-22T16:24:08.169Z,27.91
2023-03-22T16:28:08.243Z,29.03
2023-03-22T16:32:08.325Z,30.14
2023-03-22T16:36:10.227Z,26.70
2023-03-22T16:40:08.478Z,28.14
2023-03-22T16:44:08.546Z,25.94
2023-03-22T16:48:08.608Z,28.46
2023-03-22T16:52:08.671Z,29.17
2023-03-22T16:56:08.728Z,28.87
2023-03-22T17:00:08.991Z,32.06
2023-03-22T17:04:08.883Z,27.39
2023-03-22T17:08:08.936Z,29.00
2023-03-22T17:12:08.999Z,29.32
2023-03-22T17:16:09.084Z,26.87
2023-03-22T17:20:09.135Z,25.37
2023-03-22T17:24:09.229Z,31.08
2023-03-22T17:28:09.297Z,30.65
2023-03-22T17:32:13.830Z,31.73
2023-03-22T17:36:10.401Z,31.59
2023-03-22T17:40:28.303Z,31.37
2023-03-22T17:44:10.225Z,31.52
2023-03-22T17:48:09.228Z,28.88
2023-03-22T17:52:09.134Z,25.00
2023-03-22T17:56:42.152Z,29.25
2023-03-22T18:00:10.113Z,27.78
2023-03-22T18:04:09.042Z,29.67
2023-03-22T18:08:26.353Z,25.00
2023-03-22T18:12:09.974Z,25.53
2023-03-22T18:16:08.938Z,28.41
2023-03-22T18:20:17.621Z,29.30
2023-03-22T18:24:08.824Z,26.26
2023-03-22T18:28:08.820Z,27.63
2023-03-22T18:32:17.209Z,28.03
2023-03-22T18:36:09.711Z,29.65
2023-03-22T18:40:48.679Z,27.00
2023-03-22T18:44:09.596Z,25.35
2023-03-22T18:48:08.545Z,28.41
2023-03-22T18:52:36.188Z,30.51
2023-03-22T18:56:09.902Z,28.96
2023-03-22T19:00:08.411Z,29.66
2023-03-22T19:04:08.369Z,29.04
2023-03-22T19:08:25.784Z,28.27
2023-03-22T19:12:09.323Z,29.39
2023-03-22T19:16:08.301Z,28.20
2023-03-22T19:20:08.285Z,29.14
2023-03-22T19:24:08.294Z,25.69
2023-03-22T19:28:08.406Z,27.10
2023-03-22T19:32:08.536Z,28.34
2023-03-22T19:36:08.669Z,29.85
2023-03-22T19:41:06.162Z,28.50
2023-03-22T19:44:09.690Z,29.97
2023-03-22T19:48:08.685Z,31.28
2023-03-22T19:52:08.598Z,26.18
2023-03-22T19:56:08.640Z,26.78
2023-03-22T20:00:43.802Z,26.98
2023-03-22T20:04:09.690Z,28.07
2023-03-22T20:08:10.382Z,30.24
2023-03-22T20:12:08.672Z,28.23
2023-03-22T20:16:08.667Z,26.17
2023-03-22T20:20:08.748Z,28.02
2023-03-22T20:24:08.857Z,26.64
2023-03-22T20:28:16.086Z,28.78
2023-03-22T20:32:09.140Z,30.18
2023-03-22T20:36:09.156Z,27.56
2023-03-22T20:40:09.060Z,28.11
2023-03-22T20:44:09.039Z,31.23
2023-03-22T20:48:08.973Z,29.05
2023-03-22T20:52:08.934Z,29.59
2023-03-22T20:56:08.901Z,28.92
2023-03-22T21:00:08.876Z,30.80
2023-03-22T21:04:08.856Z,29.96
2023-03-22T21:08:08.922Z,29.13
2023-03-22T21:12:09.071Z,31.04
2023-03-22T21:16:09.109Z,26.57
2023-03-22T21:20:09.193Z,28.38
2023-03-22T21:24:09.273Z,26.98
2023-03-22T21:28:09.364Z,28.51
2023-03-22T21:32:09.459Z,27.89
2023-03-22T21:36:09.591Z,28.92
2023-03-22T21:40:09.632Z,28.96
2023-03-22T21:44:10.122Z,31.19
2023-03-22T21:48:09.799Z,30.26
2023-03-22T21:52:09.890Z,26.19
2023-03-22T21:56:09.951Z,28.61
2023-03-22T22:00:10.070Z,31.20
2023-03-22T22:04:10.152Z,32.23
2023-03-22T22:08:10.234Z,26.48
2023-03-22T22:12:10.330Z,29.25
2023-03-22T22:16:10.385Z,28.33
2023-03-22T22:20:10.487Z,28.74
2023-03-22T22:24:10.560Z,28.62
2023-03-22T22:28:10.643Z,30.97
2023-03-22T22:32:10.748Z,30.31
2023-03-22T22:36:10.831Z,29.69
2023-03-22T22:40:10.936Z,31.97
2023-03-22T22:44:11.028Z,28.62
2023-03-22T22:48:11.134Z,27.21
2023-03-22T22:52:11.226Z,28.25
2023-03-22T22:56:11.341Z,27.64
2023-03-22T23:00:11.449Z,25.94
2023-03-22T23:04:11.555Z,29.67
2023-03-22T23:08:11.659Z,27.51
2023-03-22T23:12:11.753Z,28.54
2023-03-22T23:16:11.866Z,30.35
2023-03-22T23:20:11.955Z,30.27
2023-03-22T23:24:12.054Z,29.32
2023-03-22T23:28:12.141Z,28.30
2023-03-22T23:32:12.229Z,27.15
2023-03-22T23:36:12.297Z,26.29
2023-03-22T23:40:12.393Z,29.30
2023-03-22T23:44:12.491Z,28.19
2023-03-22T23:48:12.598Z,28.03
2023-03-22T23:52:12.680Z,30.64
2023-03-22T23:56:12.784Z,27.59
